sensor_id;sensor_type;location;lat;lon;timestamp;P1;durP1;ratioP1;P2;durP2;ratioP2
56285;SDS011;42191;47.562;9.686;2023-06-19T00:00:31;34.85;;;32.40;;
56285;SDS011;42191;47.562;9.686;2023-06-19T00:02:57;34.70;;;32.25;;
56285;SDS011;42191;47.562;9.686;2023-06-19T00:05:24;32.67;;;30.45;;
56285;SDS011;42191;47.562;9.686;2023-06-19T00:07:50;34.53;;;32.22;;
56285;SDS011;42191;47.562;9.686;2023-06-19T00:10:17;35.45;;;33.15;;
56285;SDS011;42191;47.562;9.686;2023-06-19T00:12:43;34.58;;;32.00;;
56285;SDS011;42191;47.562;9.686;2023-06-19T00:15:09;33.70;;;31.30;;
56285;SDS011;42191;47.562;9.686;2023-06-19T00:17:36;35.10;;;32.80;;
56285;SDS011;42191;47.562;9.686;2023-06-19T00:20:05;34.25;;;31.98;;
56285;SDS011;42191;47.562;9.686;2023-06-19T00:22:32;34.42;;;32.00;;
56285;SDS011;42191;47.562;9.686;2023-06-19T00:24:59;34.92;;;32.63;;
56285;SDS011;42191;47.562;9.686;2023-06-19T00:27:26;34.92;;;32.53;;
56285;SDS011;42191;47.562;9.686;2023-06-19T00:29:52;32.97;;;30.77;;
56285;SDS011;42191;47.562;9.686;2023-06-19T00:32:18;34.45;;;32.00;;
56285;SDS011;42191;47.562;9.686;2023-06-19T00:34:45;34.30;;;32.00;;
56285;SDS011;42191;47.562;9.686;2023-06-19T00:37:11;34.35;;;31.85;;
56285;SDS011;42191;47.562;9.686;2023-06-19T00:39:38;33.83;;;31.58;;
56285;SDS011;42191;47.562;9.686;2023-06-19T00:42:05;35.47;;;33.17;;
56285;SDS011;42191;47.562;9.686;2023-06-19T00:44:31;32.70;;;30.50;;
56285;SDS011;42191;47.562;9.686;2023-06-19T00:46:58;33.90;;;31.60;;
56285;SDS011;42191;47.562;9.686;2023-06-19T00:49:26;33.05;;;30.85;;
56285;SDS011;42191;47.562;9.686;2023-06-19T00:51:54;34.13;;;31.70;;
56285;SDS011;42191;47.562;9.686;2023-06-19T00:54:20;34.25;;;31.65;;
56285;SDS011;42191;47.562;9.686;2023-06-19T00:56:47;33.83;;;31.52;;
56285;SDS011;42191;47.562;9.686;2023-06-19T00:59:17;34.72;;;32.35;;
56285;SDS011;42191;47.562;9.686;2023-06-19T01:01:44;35.28;;;32.88;;
56285;SDS011;42191;47.562;9.686;2023-06-19T01:04:11;33.90;;;31.65;;
56285;SDS011;42191;47.562;9.686;2023-06-19T01:06:46;33.63;;;31.33;;
56285;SDS011;42191;47.562;9.686;2023-06-19T01:09:23;34.08;;;31.63;;
56285;SDS011;42191;47.562;9.686;2023-06-19T01:14:54;34.03;;;31.73;;
56285;SDS011;42191;47.562;9.686;2023-06-19T01:17:24;33.53;;;31.33;;
56285;SDS011;42191;47.562;9.686;2023-06-19T01:19:52;34.95;;;32.60;;
56285;SDS011;42191;47.562;9.686;2023-06-19T01:22:31;35.78;;;33.42;;
56285;SDS011;42191;47.562;9.686;2023-06-19T01:24:57;34.75;;;32.45;;
56285;SDS011;42191;47.562;9.686;2023-06-19T01:27:24;35.70;;;33.30;;
56285;SDS011;42191;47.562;9.686;2023-06-19T01:29:54;33.10;;;30.92;;
56285;SDS011;42191;47.562;9.686;2023-06-19T01:32:37;34.72;;;32.42;;
56285;SDS011;42191;47.562;9.686;2023-06-19T01:35:25;36.00;;;33.33;;
56285;SDS011;42191;47.562;9.686;2023-06-19T01:37:54;34.78;;;32.47;;
56285;SDS011;42191;47.562;9.686;2023-06-19T01:40:21;35.58;;;33.17;;
56285;SDS011;42191;47.562;9.686;2023-06-19T01:42:52;34.92;;;32.65;;
56285;SDS011;42191;47.562;9.686;2023-06-19T01:45:19;35.13;;;32.45;;
56285;SDS011;42191;47.562;9.686;2023-06-19T01:47:46;33.97;;;31.75;;
56285;SDS011;42191;47.562;9.686;2023-06-19T01:50:12;35.65;;;32.78;;
56285;SDS011;42191;47.562;9.686;2023-06-19T01:52:39;34.78;;;32.33;;
56285;SDS011;42191;47.562;9.686;2023-06-19T01:55:05;34.80;;;32.33;;
56285;SDS011;42191;47.562;9.686;2023-06-19T01:57:31;35.15;;;32.75;;
56285;SDS011;42191;47.562;9.686;2023-06-19T01:59:58;35.38;;;32.65;;
56285;SDS011;42191;47.562;9.686;2023-06-19T02:02:24;35.58;;;33.17;;
56285;SDS011;42191;47.562;9.686;2023-06-19T02:04:51;33.72;;;31.35;;
56285;SDS011;42191;47.562;9.686;2023-06-19T02:07:17;34.47;;;32.17;;
56285;SDS011;42191;47.562;9.686;2023-06-19T02:09:43;35.13;;;32.72;;
56285;SDS011;42191;47.562;9.686;2023-06-19T02:12:09;35.10;;;32.80;;
56285;SDS011;42191;47.562;9.686;2023-06-19T02:14:35;34.00;;;31.60;;
56285;SDS011;42191;47.562;9.686;2023-06-19T02:17:01;35.13;;;32.83;;
56285;SDS011;42191;47.562;9.686;2023-06-19T02:19:27;35.88;;;33.47;;
56285;SDS011;42191;47.562;9.686;2023-06-19T02:21:53;35.33;;;32.92;;
56285;SDS011;42191;47.562;9.686;2023-06-19T02:24:19;34.70;;;32.20;;
56285;SDS011;42191;47.562;9.686;2023-06-19T02:26:45;35.78;;;33.28;;
56285;SDS011;42191;47.562;9.686;2023-06-19T02:29:11;35.75;;;33.35;;
56285;SDS011;42191;47.562;9.686;2023-06-19T02:31:37;36.47;;;33.88;;
56285;SDS011;42191;47.562;9.686;2023-06-19T02:34:04;35.47;;;32.83;;
56285;SDS011;42191;47.562;9.686;2023-06-19T02:36:30;35.22;;;32.92;;
56285;SDS011;42191;47.562;9.686;2023-06-19T02:38:56;35.90;;;33.33;;
56285;SDS011;42191;47.562;9.686;2023-06-19T02:41:22;36.15;;;33.42;;
56285;SDS011;42191;47.562;9.686;2023-06-19T02:43:48;36.72;;;34.15;;
56285;SDS011;42191;47.562;9.686;2023-06-19T02:46:14;36.30;;;33.78;;
56285;SDS011;42191;47.562;9.686;2023-06-19T02:48:41;36.95;;;34.35;;
56285;SDS011;42191;47.562;9.686;2023-06-19T02:51:07;35.50;;;33.17;;
56285;SDS011;42191;47.562;9.686;2023-06-19T02:53:33;35.45;;;33.05;;
56285;SDS011;42191;47.562;9.686;2023-06-19T02:55:59;35.47;;;32.97;;
56285;SDS011;42191;47.562;9.686;2023-06-19T02:58:25;33.75;;;31.35;;
56285;SDS011;42191;47.562;9.686;2023-06-19T03:00:55;36.03;;;33.63;;
56285;SDS011;42191;47.562;9.686;2023-06-19T03:03:21;36.50;;;34.05;;
56285;SDS011;42191;47.562;9.686;2023-06-19T03:05:48;36.13;;;33.63;;
56285;SDS011;42191;47.562;9.686;2023-06-19T03:08:14;35.95;;;33.50;;
56285;SDS011;42191;47.562;9.686;2023-06-19T03:10:40;36.35;;;33.95;;
56285;SDS011;42191;47.562;9.686;2023-06-19T03:13:06;37.50;;;34.92;;
56285;SDS011;42191;47.562;9.686;2023-06-19T03:15:32;36.40;;;33.70;;
56285;SDS011;42191;47.562;9.686;2023-06-19T03:17:58;36.97;;;34.28;;
56285;SDS011;42191;47.562;9.686;2023-06-19T03:20:28;36.50;;;33.90;;
56285;SDS011;42191;47.562;9.686;2023-06-19T03:22:54;34.58;;;32.20;;
56285;SDS011;42191;47.562;9.686;2023-06-19T03:25:20;36.70;;;34.28;;
56285;SDS011;42191;47.562;9.686;2023-06-19T03:27:46;36.83;;;34.25;;
56285;SDS011;42191;47.562;9.686;2023-06-19T03:30:12;36.78;;;34.28;;
56285;SDS011;42191;47.562;9.686;2023-06-19T03:32:39;35.65;;;33.05;;
56285;SDS011;42191;47.562;9.686;2023-06-19T03:35:05;35.55;;;33.15;;
56285;SDS011;42191;47.562;9.686;2023-06-19T03:37:31;35.20;;;32.88;;
56285;SDS011;42191;47.562;9.686;2023-06-19T03:39:57;35.20;;;32.83;;
56285;SDS011;42191;47.562;9.686;2023-06-19T03:42:24;36.67;;;34.22;;
56285;SDS011;42191;47.562;9.686;2023-06-19T03:44:50;35.30;;;32.92;;
56285;SDS011;42191;47.562;9.686;2023-06-19T03:47:16;36.90;;;34.40;;
56285;SDS011;42191;47.562;9.686;2023-06-19T03:49:42;36.15;;;33.70;;
56285;SDS011;42191;47.562;9.686;2023-06-19T03:52:08;35.15;;;32.85;;
56285;SDS011;42191;47.562;9.686;2023-06-19T03:54:34;35.75;;;33.42;;
56285;SDS011;42191;47.562;9.686;2023-06-19T03:57:01;34.67;;;32.35;;
56285;SDS011;42191;47.562;9.686;2023-06-19T03:59:27;35.72;;;33.28;;
56285;SDS011;42191;47.562;9.686;2023-06-19T04:01:53;36.97;;;34.40;;
56285;SDS011;42191;47.562;9.686;2023-06-19T04:04:19;33.35;;;31.05;;
56285;SDS011;42191;47.562;9.686;2023-06-19T04:06:45;35.42;;;33.03;;
56285;SDS011;42191;47.562;9.686;2023-06-19T04:09:12;33.95;;;31.40;;
56285;SDS011;42191;47.562;9.686;2023-06-19T04:11:38;34.28;;;31.95;;
56285;SDS011;42191;47.562;9.686;2023-06-19T04:14:04;35.85;;;33.45;;
56285;SDS011;42191;47.562;9.686;2023-06-19T04:16:30;36.20;;;33.72;;
56285;SDS011;42191;47.562;9.686;2023-06-19T04:18:56;36.88;;;34.38;;
56285;SDS011;42191;47.562;9.686;2023-06-19T04:21:22;34.35;;;32.05;;
56285;SDS011;42191;47.562;9.686;2023-06-19T04:23:48;36.40;;;34.00;;
56285;SDS011;42191;47.562;9.686;2023-06-19T04:26:14;34.17;;;31.88;;
56285;SDS011;42191;47.562;9.686;2023-06-19T04:28:40;37.40;;;34.80;;
56285;SDS011;42191;47.562;9.686;2023-06-19T04:31:07;35.08;;;32.72;;
56285;SDS011;42191;47.562;9.686;2023-06-19T04:33:33;36.67;;;34.28;;
56285;SDS011;42191;47.562;9.686;2023-06-19T04:35:59;35.95;;;33.42;;
56285;SDS011;42191;47.562;9.686;2023-06-19T04:38:25;35.20;;;32.88;;
56285;SDS011;42191;47.562;9.686;2023-06-19T04:40:51;34.78;;;32.47;;
56285;SDS011;42191;47.562;9.686;2023-06-19T04:43:18;35.20;;;32.85;;
56285;SDS011;42191;47.562;9.686;2023-06-19T04:45:44;33.70;;;31.50;;
56285;SDS011;42191;47.562;9.686;2023-06-19T04:48:10;34.92;;;32.60;;
56285;SDS011;42191;47.562;9.686;2023-06-19T04:50:37;35.33;;;32.88;;
56285;SDS011;42191;47.562;9.686;2023-06-19T04:53:03;35.40;;;33.10;;
56285;SDS011;42191;47.562;9.686;2023-06-19T04:55:29;34.35;;;32.15;;
56285;SDS011;42191;47.562;9.686;2023-06-19T04:57:55;33.75;;;31.48;;
56285;SDS011;42191;47.562;9.686;2023-06-19T05:00:21;34.05;;;31.85;;
56285;SDS011;42191;47.562;9.686;2023-06-19T05:02:48;32.72;;;30.42;;
56285;SDS011;42191;47.562;9.686;2023-06-19T05:05:15;35.30;;;32.97;;
56285;SDS011;42191;47.562;9.686;2023-06-19T05:07:42;33.78;;;31.58;;
56285;SDS011;42191;47.562;9.686;2023-06-19T05:10:10;32.97;;;30.70;;
56285;SDS011;42191;47.562;9.686;2023-06-19T05:12:36;32.58;;;30.38;;
56285;SDS011;42191;47.562;9.686;2023-06-19T05:15:02;34.97;;;32.42;;
56285;SDS011;42191;47.562;9.686;2023-06-19T05:17:29;34.22;;;32.03;;
56285;SDS011;42191;47.562;9.686;2023-06-19T05:19:55;34.42;;;31.92;;
56285;SDS011;42191;47.562;9.686;2023-06-19T05:22:21;34.45;;;32.10;;
56285;SDS011;42191;47.562;9.686;2023-06-19T05:24:49;34.13;;;31.52;;
56285;SDS011;42191;47.562;9.686;2023-06-19T05:27:15;34.97;;;32.58;;
56285;SDS011;42191;47.562;9.686;2023-06-19T05:29:41;34.15;;;31.88;;
56285;SDS011;42191;47.562;9.686;2023-06-19T05:32:07;33.78;;;31.58;;
56285;SDS011;42191;47.562;9.686;2023-06-19T05:34:33;34.45;;;32.05;;
56285;SDS011;42191;47.562;9.686;2023-06-19T05:36:59;34.97;;;32.35;;
56285;SDS011;42191;47.562;9.686;2023-06-19T05:39:28;32.58;;;30.08;;
56285;SDS011;42191;47.562;9.686;2023-06-19T05:41:54;33.97;;;31.60;;
56285;SDS011;42191;47.562;9.686;2023-06-19T05:44:20;32.75;;;30.50;;
56285;SDS011;42191;47.562;9.686;2023-06-19T05:46:46;34.78;;;32.35;;
56285;SDS011;42191;47.562;9.686;2023-06-19T05:49:13;30.40;;;28.48;;
56285;SDS011;42191;47.562;9.686;2023-06-19T05:51:39;31.45;;;29.45;;
56285;SDS011;42191;47.562;9.686;2023-06-19T05:54:05;30.92;;;28.92;;
56285;SDS011;42191;47.562;9.686;2023-06-19T05:56:31;32.13;;;29.85;;
56285;SDS011;42191;47.562;9.686;2023-06-19T05:58:58;31.65;;;29.55;;
56285;SDS011;42191;47.562;9.686;2023-06-19T06:01:25;31.17;;;29.10;;
56285;SDS011;42191;47.562;9.686;2023-06-19T06:03:53;31.67;;;29.60;;
56285;SDS011;42191;47.562;9.686;2023-06-19T06:06:19;31.52;;;29.50;;
56285;SDS011;42191;47.562;9.686;2023-06-19T06:08:47;31.27;;;29.38;;
56285;SDS011;42191;47.562;9.686;2023-06-19T06:11:14;30.45;;;28.45;;
56285;SDS011;42191;47.562;9.686;2023-06-19T06:13:40;30.90;;;28.90;;
56285;SDS011;42191;47.562;9.686;2023-06-19T06:16:06;32.88;;;30.73;;
56285;SDS011;42191;47.562;9.686;2023-06-19T06:18:32;33.10;;;30.67;;
56285;SDS011;42191;47.562;9.686;2023-06-19T06:20:58;31.27;;;29.27;;
56285;SDS011;42191;47.562;9.686;2023-06-19T06:23:25;32.30;;;30.30;;
56285;SDS011;42191;47.562;9.686;2023-06-19T06:25:51;30.75;;;28.85;;
56285;SDS011;42191;47.562;9.686;2023-06-19T06:28:17;32.20;;;30.20;;
56285;SDS011;42191;47.562;9.686;2023-06-19T06:30:43;31.00;;;29.00;;
56285;SDS011;42191;47.562;9.686;2023-06-19T06:33:09;30.92;;;28.95;;
56285;SDS011;42191;47.562;9.686;2023-06-19T06:35:35;31.77;;;29.67;;
56285;SDS011;42191;47.562;9.686;2023-06-19T06:38:02;30.23;;;28.23;;
56285;SDS011;42191;47.562;9.686;2023-06-19T06:40:28;31.13;;;29.15;;
56285;SDS011;42191;47.562;9.686;2023-06-19T06:42:54;31.15;;;28.85;;
56285;SDS011;42191;47.562;9.686;2023-06-19T06:45:20;30.10;;;28.20;;
56285;SDS011;42191;47.562;9.686;2023-06-19T06:47:47;31.75;;;29.77;;
56285;SDS011;42191;47.562;9.686;2023-06-19T06:50:13;29.73;;;27.83;;
56285;SDS011;42191;47.562;9.686;2023-06-19T06:52:39;31.45;;;29.42;;
56285;SDS011;42191;47.562;9.686;2023-06-19T06:55:05;30.75;;;28.75;;
56285;SDS011;42191;47.562;9.686;2023-06-19T06:57:31;30.02;;;28.13;;
56285;SDS011;42191;47.562;9.686;2023-06-19T06:59:57;31.40;;;29.40;;
56285;SDS011;42191;47.562;9.686;2023-06-19T07:02:23;31.95;;;29.95;;
56285;SDS011;42191;47.562;9.686;2023-06-19T07:04:50;32.65;;;30.45;;
56285;SDS011;42191;47.562;9.686;2023-06-19T07:07:17;30.40;;;28.30;;
56285;SDS011;42191;47.562;9.686;2023-06-19T07:09:43;30.10;;;28.25;;
56285;SDS011;42191;47.562;9.686;2023-06-19T07:12:09;31.23;;;29.23;;
56285;SDS011;42191;47.562;9.686;2023-06-19T07:14:35;28.67;;;26.75;;
56285;SDS011;42191;47.562;9.686;2023-06-19T07:17:01;31.00;;;28.90;;
56285;SDS011;42191;47.562;9.686;2023-06-19T07:19:27;30.23;;;28.38;;
56285;SDS011;42191;47.562;9.686;2023-06-19T07:21:54;29.92;;;27.98;;
56285;SDS011;42191;47.562;9.686;2023-06-19T07:24:20;30.15;;;28.15;;
56285;SDS011;42191;47.562;9.686;2023-06-19T07:26:48;30.15;;;28.25;;
56285;SDS011;42191;47.562;9.686;2023-06-19T07:29:14;28.90;;;27.10;;
56285;SDS011;42191;47.562;9.686;2023-06-19T07:31:40;29.35;;;27.52;;
56285;SDS011;42191;47.562;9.686;2023-06-19T07:34:09;28.75;;;26.95;;
56285;SDS011;42191;47.562;9.686;2023-06-19T07:36:35;30.52;;;28.63;;
56285;SDS011;42191;47.562;9.686;2023-06-19T07:39:02;30.40;;;28.48;;
56285;SDS011;42191;47.562;9.686;2023-06-19T07:41:28;28.27;;;26.48;;
56285;SDS011;42191;47.562;9.686;2023-06-19T07:43:54;31.58;;;29.58;;
56285;SDS011;42191;47.562;9.686;2023-06-19T07:46:20;31.02;;;29.08;;
56285;SDS011;42191;47.562;9.686;2023-06-19T07:48:46;30.35;;;28.38;;
56285;SDS011;42191;47.562;9.686;2023-06-19T07:51:12;29.65;;;27.75;;
56285;SDS011;42191;47.562;9.686;2023-06-19T07:53:38;30.52;;;28.55;;
56285;SDS011;42191;47.562;9.686;2023-06-19T07:56:04;29.50;;;27.63;;
56285;SDS011;42191;47.562;9.686;2023-06-19T07:58:31;30.88;;;28.42;;
56285;SDS011;42191;47.562;9.686;2023-06-19T08:00:57;30.55;;;28.65;;
56285;SDS011;42191;47.562;9.686;2023-06-19T08:03:23;29.30;;;27.42;;
56285;SDS011;42191;47.562;9.686;2023-06-19T08:05:49;31.58;;;29.45;;
56285;SDS011;42191;47.562;9.686;2023-06-19T08:08:15;29.30;;;27.50;;
56285;SDS011;42191;47.562;9.686;2023-06-19T08:10:41;29.20;;;27.35;;
56285;SDS011;42191;47.562;9.686;2023-06-19T08:13:07;29.98;;;27.95;;
56285;SDS011;42191;47.562;9.686;2023-06-19T08:15:36;30.17;;;28.27;;
56285;SDS011;42191;47.562;9.686;2023-06-19T08:18:02;29.85;;;27.80;;
56285;SDS011;42191;47.562;9.686;2023-06-19T08:20:28;29.23;;;27.38;;
56285;SDS011;42191;47.562;9.686;2023-06-19T08:22:54;29.33;;;27.52;;
56285;SDS011;42191;47.562;9.686;2023-06-19T08:25:21;28.67;;;26.88;;
56285;SDS011;42191;47.562;9.686;2023-06-19T08:27:47;28.65;;;26.83;;
56285;SDS011;42191;47.562;9.686;2023-06-19T08:30:14;28.83;;;26.98;;
56285;SDS011;42191;47.562;9.686;2023-06-19T08:32:40;28.35;;;26.58;;
56285;SDS011;42191;47.562;9.686;2023-06-19T08:35:06;28.70;;;26.90;;
56285;SDS011;42191;47.562;9.686;2023-06-19T08:37:32;28.02;;;26.17;;
56285;SDS011;42191;47.562;9.686;2023-06-19T08:39:59;29.02;;;27.02;;
56285;SDS011;42191;47.562;9.686;2023-06-19T08:42:25;28.17;;;26.38;;
56285;SDS011;42191;47.562;9.686;2023-06-19T08:44:51;28.98;;;27.17;;
56285;SDS011;42191;47.562;9.686;2023-06-19T08:47:18;27.63;;;25.83;;
56285;SDS011;42191;47.562;9.686;2023-06-19T08:49:44;27.83;;;26.02;;
56285;SDS011;42191;47.562;9.686;2023-06-19T08:52:11;27.80;;;26.10;;
56285;SDS011;42191;47.562;9.686;2023-06-19T08:54:37;27.63;;;25.92;;
56285;SDS011;42191;47.562;9.686;2023-06-19T08:57:09;26.55;;;24.90;;
56285;SDS011;42191;47.562;9.686;2023-06-19T08:59:36;28.77;;;26.88;;
56285;SDS011;42191;47.562;9.686;2023-06-19T09:02:02;25.55;;;23.95;;
56285;SDS011;42191;47.562;9.686;2023-06-19T09:04:28;26.25;;;24.35;;
56285;SDS011;42191;47.562;9.686;2023-06-19T09:07:01;27.75;;;26.05;;
56285;SDS011;42191;47.562;9.686;2023-06-19T09:09:29;24.65;;;23.15;;
56285;SDS011;42191;47.562;9.686;2023-06-19T09:14:35;27.55;;;25.85;;
56285;SDS011;42191;47.562;9.686;2023-06-19T09:17:03;27.58;;;25.88;;
56285;SDS011;42191;47.562;9.686;2023-06-19T09:19:31;28.40;;;26.70;;
56285;SDS011;42191;47.562;9.686;2023-06-19T09:22:00;27.23;;;25.50;;
56285;SDS011;42191;47.562;9.686;2023-06-19T09:24:32;27.52;;;25.73;;
56285;SDS011;42191;47.562;9.686;2023-06-19T09:27:07;27.20;;;25.50;;
56285;SDS011;42191;47.562;9.686;2023-06-19T09:29:43;26.92;;;25.33;;
56285;SDS011;42191;47.562;9.686;2023-06-19T09:32:14;29.83;;;28.02;;
56285;SDS011;42191;47.562;9.686;2023-06-19T09:34:45;28.80;;;26.98;;
56285;SDS011;42191;47.562;9.686;2023-06-19T09:37:12;28.02;;;26.33;;
56285;SDS011;42191;47.562;9.686;2023-06-19T09:39:39;29.00;;;27.02;;
56285;SDS011;42191;47.562;9.686;2023-06-19T09:42:06;28.88;;;26.85;;
56285;SDS011;42191;47.562;9.686;2023-06-19T09:44:37;28.10;;;26.30;;
56285;SDS011;42191;47.562;9.686;2023-06-19T09:47:10;27.83;;;26.13;;
56285;SDS011;42191;47.562;9.686;2023-06-19T09:49:48;27.60;;;25.80;;
56285;SDS011;42191;47.562;9.686;2023-06-19T09:52:19;27.97;;;26.07;;
56285;SDS011;42191;47.562;9.686;2023-06-19T09:54:47;27.52;;;25.90;;
56285;SDS011;42191;47.562;9.686;2023-06-19T09:57:15;28.20;;;26.40;;
56285;SDS011;42191;47.562;9.686;2023-06-19T09:59:43;27.17;;;25.48;;
56285;SDS011;42191;47.562;9.686;2023-06-19T10:02:11;28.65;;;26.77;;
56285;SDS011;42191;47.562;9.686;2023-06-19T10:04:48;27.38;;;25.67;;
56285;SDS011;42191;47.562;9.686;2023-06-19T10:07:23;27.55;;;25.85;;
56285;SDS011;42191;47.562;9.686;2023-06-19T10:09:54;27.88;;;26.17;;
56285;SDS011;42191;47.562;9.686;2023-06-19T10:12:37;27.98;;;26.20;;
56285;SDS011;42191;47.562;9.686;2023-06-19T10:15:11;26.42;;;24.80;;
56285;SDS011;42191;47.562;9.686;2023-06-19T10:17:52;26.70;;;24.98;;
56285;SDS011;42191;47.562;9.686;2023-06-19T10:20:29;27.20;;;25.50;;
56285;SDS011;42191;47.562;9.686;2023-06-19T10:25:33;27.77;;;26.02;;
56285;SDS011;42191;47.562;9.686;2023-06-19T10:28:02;27.67;;;25.70;;
56285;SDS011;42191;47.562;9.686;2023-06-19T10:30:31;28.17;;;26.27;;
56285;SDS011;42191;47.562;9.686;2023-06-19T10:32:59;27.60;;;25.90;;
56285;SDS011;42191;47.562;9.686;2023-06-19T10:35:29;28.05;;;26.30;;
56285;SDS011;42191;47.562;9.686;2023-06-19T10:38:03;25.63;;;24.05;;
56285;SDS011;42191;47.562;9.686;2023-06-19T10:40:29;28.52;;;26.75;;
56285;SDS011;42191;47.562;9.686;2023-06-19T10:42:55;29.58;;;27.52;;
56285;SDS011;42191;47.562;9.686;2023-06-19T10:45:21;28.80;;;27.00;;
56285;SDS011;42191;47.562;9.686;2023-06-19T10:47:53;27.07;;;25.37;;
56285;SDS011;42191;47.562;9.686;2023-06-19T10:50:20;28.23;;;26.42;;
56285;SDS011;42191;47.562;9.686;2023-06-19T10:52:48;27.85;;;26.15;;
56285;SDS011;42191;47.562;9.686;2023-06-19T10:55:19;26.95;;;25.25;;
56285;SDS011;42191;47.562;9.686;2023-06-19T10:57:46;27.65;;;25.95;;
56285;SDS011;42191;47.562;9.686;2023-06-19T11:00:23;27.83;;;26.02;;
56285;SDS011;42191;47.562;9.686;2023-06-19T11:02:49;28.00;;;26.30;;
56285;SDS011;42191;47.562;9.686;2023-06-19T11:05:15;27.25;;;25.55;;
56285;SDS011;42191;47.562;9.686;2023-06-19T11:07:50;27.08;;;25.45;;
56285;SDS011;42191;47.562;9.686;2023-06-19T11:10:25;28.17;;;26.48;;
56285;SDS011;42191;47.562;9.686;2023-06-19T11:12:57;28.52;;;26.75;;
56285;SDS011;42191;47.562;9.686;2023-06-19T11:15:33;26.85;;;25.15;;
56285;SDS011;42191;47.562;9.686;2023-06-19T11:18:00;28.15;;;26.45;;
56285;SDS011;42191;47.562;9.686;2023-06-19T11:20:26;28.20;;;26.50;;
56285;SDS011;42191;47.562;9.686;2023-06-19T11:23:00;29.00;;;27.20;;
56285;SDS011;42191;47.562;9.686;2023-06-19T11:25:39;28.38;;;26.67;;
56285;SDS011;42191;47.562;9.686;2023-06-19T11:30:38;28.45;;;26.65;;
56285;SDS011;42191;47.562;9.686;2023-06-19T11:33:18;28.33;;;26.42;;
56285;SDS011;42191;47.562;9.686;2023-06-19T11:35:51;28.40;;;26.63;;
56285;SDS011;42191;47.562;9.686;2023-06-19T11:40:44;28.98;;;27.17;;
56285;SDS011;42191;47.562;9.686;2023-06-19T11:43:10;26.65;;;24.98;;
56285;SDS011;42191;47.562;9.686;2023-06-19T11:45:49;27.50;;;25.80;;
56285;SDS011;42191;47.562;9.686;2023-06-19T11:48:23;26.75;;;25.15;;
56285;SDS011;42191;47.562;9.686;2023-06-19T11:50:51;27.17;;;25.55;;
56285;SDS011;42191;47.562;9.686;2023-06-19T11:53:18;27.23;;;25.63;;
56285;SDS011;42191;47.562;9.686;2023-06-19T11:55:45;27.63;;;25.92;;
56285;SDS011;42191;47.562;9.686;2023-06-19T11:58:11;27.60;;;25.90;;
56285;SDS011;42191;47.562;9.686;2023-06-19T12:00:38;27.20;;;25.50;;
56285;SDS011;42191;47.562;9.686;2023-06-19T12:03:04;27.20;;;25.58;;
56285;SDS011;42191;47.562;9.686;2023-06-19T12:05:30;26.92;;;25.33;;
56285;SDS011;42191;47.562;9.686;2023-06-19T12:07:56;28.40;;;26.70;;
56285;SDS011;42191;47.562;9.686;2023-06-19T12:10:23;27.17;;;25.42;;
56285;SDS011;42191;47.562;9.686;2023-06-19T12:12:49;27.13;;;25.45;;
56285;SDS011;42191;47.562;9.686;2023-06-19T12:15:15;28.10;;;26.40;;
56285;SDS011;42191;47.562;9.686;2023-06-19T12:17:41;27.95;;;26.15;;
56285;SDS011;42191;47.562;9.686;2023-06-19T12:20:07;27.38;;;25.30;;
56285;SDS011;42191;47.562;9.686;2023-06-19T12:22:34;28.15;;;26.25;;
56285;SDS011;42191;47.562;9.686;2023-06-19T12:25:00;29.02;;;27.17;;
56285;SDS011;42191;47.562;9.686;2023-06-19T12:27:26;29.23;;;27.23;;
56285;SDS011;42191;47.562;9.686;2023-06-19T12:29:53;29.15;;;27.05;;
56285;SDS011;42191;47.562;9.686;2023-06-19T12:32:19;30.80;;;28.40;;
56285;SDS011;42191;47.562;9.686;2023-06-19T12:34:46;28.08;;;26.27;;
56285;SDS011;42191;47.562;9.686;2023-06-19T12:37:14;30.45;;;28.45;;
56285;SDS011;42191;47.562;9.686;2023-06-19T12:39:42;29.45;;;27.52;;
56285;SDS011;42191;47.562;9.686;2023-06-19T12:42:09;30.30;;;27.60;;
56285;SDS011;42191;47.562;9.686;2023-06-19T12:44:41;28.90;;;26.60;;
56285;SDS011;42191;47.562;9.686;2023-06-19T12:47:09;29.25;;;27.35;;
56285;SDS011;42191;47.562;9.686;2023-06-19T12:49:35;30.45;;;28.35;;
56285;SDS011;42191;47.562;9.686;2023-06-19T12:52:02;28.60;;;26.65;;
56285;SDS011;42191;47.562;9.686;2023-06-19T12:54:28;29.67;;;27.67;;
56285;SDS011;42191;47.562;9.686;2023-06-19T12:56:54;28.50;;;26.58;;
56285;SDS011;42191;47.562;9.686;2023-06-19T12:59:21;29.73;;;27.42;;
56285;SDS011;42191;47.562;9.686;2023-06-19T13:01:47;29.77;;;27.88;;
56285;SDS011;42191;47.562;9.686;2023-06-19T13:04:13;29.25;;;27.35;;
56285;SDS011;42191;47.562;9.686;2023-06-19T13:06:40;26.95;;;25.02;;
56285;SDS011;42191;47.562;9.686;2023-06-19T13:09:06;26.17;;;24.48;;
56285;SDS011;42191;47.562;9.686;2023-06-19T13:11:32;27.05;;;25.30;;
56285;SDS011;42191;47.562;9.686;2023-06-19T13:13:59;26.35;;;24.65;;
56285;SDS011;42191;47.562;9.686;2023-06-19T13:16:26;26.27;;;24.50;;
56285;SDS011;42191;47.562;9.686;2023-06-19T13:18:52;26.23;;;24.52;;
56285;SDS011;42191;47.562;9.686;2023-06-19T13:21:18;24.90;;;23.08;;
56285;SDS011;42191;47.562;9.686;2023-06-19T13:23:44;25.23;;;23.63;;
56285;SDS011;42191;47.562;9.686;2023-06-19T13:26:11;24.92;;;23.30;;
56285;SDS011;42191;47.562;9.686;2023-06-19T13:28:37;25.30;;;23.60;;
56285;SDS011;42191;47.562;9.686;2023-06-19T13:31:03;25.77;;;23.70;;
56285;SDS011;42191;47.562;9.686;2023-06-19T13:33:29;24.98;;;23.40;;
56285;SDS011;42191;47.562;9.686;2023-06-19T13:35:55;24.80;;;23.10;;
56285;SDS011;42191;47.562;9.686;2023-06-19T13:38:22;25.02;;;23.42;;
56285;SDS011;42191;47.562;9.686;2023-06-19T13:40:48;24.02;;;22.42;;
56285;SDS011;42191;47.562;9.686;2023-06-19T13:43:14;24.17;;;22.60;;
56285;SDS011;42191;47.562;9.686;2023-06-19T13:45:41;24.33;;;22.83;;
56285;SDS011;42191;47.562;9.686;2023-06-19T13:48:08;24.15;;;22.55;;
56285;SDS011;42191;47.562;9.686;2023-06-19T13:50:35;24.48;;;22.98;;
56285;SDS011;42191;47.562;9.686;2023-06-19T13:53:01;24.67;;;23.08;;
56285;SDS011;42191;47.562;9.686;2023-06-19T13:55:27;25.00;;;23.40;;
56285;SDS011;42191;47.562;9.686;2023-06-19T13:57:53;24.92;;;23.33;;
56285;SDS011;42191;47.562;9.686;2023-06-19T14:00:19;25.08;;;23.33;;
56285;SDS011;42191;47.562;9.686;2023-06-19T14:02:45;23.88;;;22.20;;
56285;SDS011;42191;47.562;9.686;2023-06-19T14:05:11;24.67;;;22.95;;
56285;SDS011;42191;47.562;9.686;2023-06-19T14:07:41;24.23;;;22.52;;
56285;SDS011;42191;47.562;9.686;2023-06-19T14:10:07;24.48;;;22.88;;
56285;SDS011;42191;47.562;9.686;2023-06-19T14:12:34;24.63;;;22.95;;
56285;SDS011;42191;47.562;9.686;2023-06-19T14:15:00;24.30;;;22.80;;
56285;SDS011;42191;47.562;9.686;2023-06-19T14:17:26;24.58;;;22.98;;
56285;SDS011;42191;47.562;9.686;2023-06-19T14:19:52;24.35;;;22.65;;
56285;SDS011;42191;47.562;9.686;2023-06-19T14:22:20;23.13;;;21.52;;
56285;SDS011;42191;47.562;9.686;2023-06-19T14:24:47;23.88;;;22.38;;
56285;SDS011;42191;47.562;9.686;2023-06-19T14:27:13;23.25;;;21.60;;
56285;SDS011;42191;47.562;9.686;2023-06-19T14:29:39;23.08;;;21.48;;
56285;SDS011;42191;47.562;9.686;2023-06-19T14:32:06;23.35;;;21.92;;
56285;SDS011;42191;47.562;9.686;2023-06-19T14:34:32;23.05;;;21.65;;